Pronóstico
Mapa Interactivo
Aviación
Climatología
Hidrometeorología
Agrometeorología
Estaciones Automáticas
Transparencia
OMM WMO
Portada
Institución
Noticias
Imágenes
Tsunami
Historial
Boletines y Alertas
Contactos
Buscar Contenidos
Informe del Tiempo

METAR
METAR MDPP 191200Z 00000KT 9999 FEW018 21/20 Q1016=
METAR MDST 191200Z 00000KT 4000 BR BKN012 19/19 Q1017 NOSIG=
METAR MDPC 191200Z 00000KT 9999 FEW016 19/19 Q1017=
METAR MDBH 191200Z 00000KT 9999 FEW016 22/20 Q1017=
METAR MDJB 191200Z 00000KT 9999 FEW016 18/17 Q1018 NOSIG=
METAR MDSD 191200Z 05004KT 9999 FEW018 20/19 Q1016=
METAR MDLR 191200Z 00000KT 9999 FEW016 18/17 Q1017=
METAR MDCY 191200Z 00000KT 9999 FEW016 20/20 Q1017=
METAR MDAB 191200Z 00000KT 9999 FEW016 21/20 Q1016=